createdAt,value
2023-02-17T00:02:05.004Z,100.00
2023-02-17T00:03:28.040Z,100.00
2023-02-17T00:04:33.346Z,100.00
2023-02-17T00:06:59.983Z,100.00
2023-02-17T00:08:28.038Z,100.00
2023-02-17T00:09:26.413Z,100.00
2023-02-17T00:11:53.135Z,100.00
2023-02-17T00:13:28.059Z,100.00
2023-02-17T00:14:25.925Z,100.00
2023-02-17T00:16:52.240Z,100.00
2023-02-17T00:18:28.100Z,100.00
2023-02-17T00:19:25.254Z,100.00
2023-02-17T00:21:55.290Z,100.00
2023-02-17T00:23:28.082Z,100.00
2023-02-17T00:24:23.173Z,100.00
2023-02-17T00:26:49.579Z,100.00
2023-02-17T00:28:28.167Z,100.00
2023-02-17T00:29:17.516Z,100.00
2023-02-17T00:31:45.694Z,100.00
2023-02-17T00:33:28.260Z,100.00
2023-02-17T00:34:13.171Z,100.00
2023-02-17T00:36:40.463Z,100.00
2023-02-17T00:38:28.058Z,100.00
2023-02-17T00:39:06.932Z,100.00
2023-02-17T00:41:33.825Z,100.00
2023-02-17T00:43:28.047Z,100.00
2023-02-17T00:44:00.803Z,100.00
2023-02-17T00:46:27.638Z,100.00
2023-02-17T00:48:28.082Z,100.00
2023-02-17T00:48:54.053Z,100.00
2023-02-17T00:51:20.635Z,100.00
2023-02-17T00:53:28.112Z,100.00
2023-02-17T00:53:49.633Z,100.00
2023-02-17T00:56:16.069Z,100.00
2023-02-17T00:58:28.349Z,100.00
2023-02-17T00:58:43.084Z,100.00
2023-02-17T01:01:11.966Z,100.00
2023-02-17T01:03:28.076Z,100.00
2023-02-17T01:03:40.618Z,100.00
2023-02-17T01:06:09.846Z,100.00
2023-02-17T01:08:28.056Z,100.00
2023-02-17T01:08:36.218Z,100.00
2023-02-17T01:11:05.957Z,100.00
2023-02-17T01:13:28.061Z,100.00
2023-02-17T01:13:32.360Z,100.00
2023-02-17T01:15:58.954Z,100.00
2023-02-17T01:18:25.457Z,100.00
2023-02-17T01:18:28.112Z,100.00
2023-02-17T01:20:52.881Z,100.00
2023-02-17T01:23:20.205Z,100.00
2023-02-17T01:23:28.146Z,100.00
2023-02-17T01:25:51.076Z,100.00
2023-02-17T01:28:27.372Z,100.00
2023-02-17T01:28:29.107Z,100.00
2023-02-17T01:30:53.964Z,100.00
2023-02-17T01:33:21.272Z,100.00
2023-02-17T01:33:28.143Z,100.00
2023-02-17T01:35:47.610Z,100.00
2023-02-17T01:38:16.261Z,100.00
2023-02-17T01:38:28.141Z,100.00
2023-02-17T01:40:50.506Z,100.00
2023-02-17T01:43:18.191Z,100.00
2023-02-17T01:43:28.532Z,100.00
2023-02-17T01:45:56.363Z,100.00
2023-02-17T01:48:25.362Z,100.00
2023-02-17T01:48:28.075Z,100.00
2023-02-17T01:51:16.510Z,100.00
2023-02-17T01:53:28.062Z,100.00
2023-02-17T01:53:49.797Z,100.00
2023-02-17T01:56:20.008Z,100.00
2023-02-17T01:58:28.053Z,100.00
2023-02-17T01:58:53.757Z,100.00
2023-02-17T02:01:21.182Z,100.00
2023-02-17T02:03:28.087Z,100.00
2023-02-17T02:03:48.003Z,100.00
2023-02-17T02:06:19.709Z,100.00
2023-02-17T02:08:28.071Z,100.00
2023-02-17T02:09:04.520Z,100.00
2023-02-17T02:11:36.323Z,100.00
2023-02-17T02:13:28.092Z,100.00
2023-02-17T02:14:06.716Z,100.00
2023-02-17T02:16:39.752Z,100.00
2023-02-17T02:18:28.418Z,100.00
2023-02-17T02:19:45.161Z,100.00
2023-02-17T02:22:43.315Z,100.00
2023-02-17T02:23:28.051Z,100.00
2023-02-17T02:25:33.139Z,100.00
2023-02-17T02:28:20.633Z,100.00
2023-02-17T02:28:29.117Z,100.00
2023-02-17T02:31:09.658Z,100.00
2023-02-17T02:33:28.072Z,100.00
2023-02-17T02:33:50.215Z,100.00
2023-02-17T02:36:29.102Z,100.00
2023-02-17T02:38:28.104Z,100.00
2023-02-17T02:39:04.505Z,100.00
2023-02-17T02:41:39.741Z,100.00
2023-02-17T02:43:28.172Z,100.00
2023-02-17T02:44:09.379Z,100.00
2023-02-17T02:46:36.318Z,100.00
2023-02-17T02:48:28.128Z,100.00
2023-02-17T02:49:04.432Z,100.00
2023-02-17T02:51:55.295Z,100.00
2023-02-17T02:53:28.462Z,100.00
2023-02-17T02:54:33.709Z,100.00
2023-02-17T02:57:19.881Z,100.00
2023-02-17T02:58:28.077Z,100.00
2023-02-17T03:00:11.038Z,100.00
2023-02-17T03:03:03.986Z,100.00
2023-02-17T03:03:28.091Z,100.00
2023-02-17T03:06:08.383Z,100.00
2023-02-17T03:08:28.090Z,100.00
2023-02-17T03:08:38.885Z,100.00
2023-02-17T03:11:06.666Z,100.00
2023-02-17T03:13:28.075Z,100.00
2023-02-17T03:13:38.040Z,100.00
2023-02-17T03:16:06.524Z,100.00
2023-02-17T03:18:28.111Z,100.00
2023-02-17T03:18:34.121Z,100.00
2023-02-17T03:21:12.021Z,100.00
2023-02-17T03:23:28.098Z,100.00
2023-02-17T03:23:38.343Z,100.00
2023-02-17T03:26:06.196Z,100.00
2023-02-17T03:28:28.075Z,100.00
2023-02-17T03:28:36.073Z,100.00
2023-02-17T03:31:02.485Z,100.00
2023-02-17T03:33:29.110Z,100.00
2023-02-17T03:33:29.244Z,100.00
2023-02-17T03:35:55.579Z,100.00
2023-02-17T03:38:22.605Z,100.00
2023-02-17T03:38:28.089Z,100.00
2023-02-17T03:40:48.943Z,100.00
2023-02-17T03:43:17.959Z,100.00
2023-02-17T03:43:28.104Z,100.00
2023-02-17T03:45:44.689Z,100.00
2023-02-17T03:48:11.006Z,100.00
2023-02-17T03:48:28.096Z,100.00
2023-02-17T03:50:37.601Z,100.00
2023-02-17T03:53:06.944Z,100.00
2023-02-17T03:53:28.090Z,100.00
2023-02-17T03:55:33.774Z,100.00
2023-02-17T03:58:00.137Z,100.00
2023-02-17T03:58:28.099Z,100.00
2023-02-17T04:00:26.782Z,100.00
2023-02-17T04:02:53.163Z,100.00
2023-02-17T04:03:28.104Z,100.00
2023-02-17T04:05:19.887Z,100.00
2023-02-17T04:07:46.274Z,100.00
2023-02-17T04:08:28.122Z,100.00
2023-02-17T04:10:12.818Z,100.00
2023-02-17T04:12:39.301Z,100.00
2023-02-17T04:13:28.100Z,100.00
2023-02-17T04:15:06.185Z,100.00
2023-02-17T04:17:32.603Z,100.00
2023-02-17T04:18:28.098Z,100.00
2023-02-17T04:19:59.011Z,100.00
2023-02-17T04:22:25.552Z,100.00
2023-02-17T04:23:28.110Z,100.00
2023-02-17T04:24:51.878Z,100.00
2023-02-17T04:27:18.625Z,100.00
2023-02-17T04:28:28.105Z,100.00
2023-02-17T04:29:45.014Z,100.00
2023-02-17T04:32:11.674Z,100.00
2023-02-17T04:33:28.134Z,100.00
2023-02-17T04:34:38.194Z,100.00
2023-02-17T04:37:05.146Z,100.00
2023-02-17T04:38:28.184Z,100.00
2023-02-17T04:39:31.995Z,100.00
2023-02-17T04:42:01.219Z,100.00
2023-02-17T04:43:28.104Z,100.00
2023-02-17T04:44:27.713Z,100.00
2023-02-17T04:46:54.168Z,100.00
2023-02-17T04:48:28.159Z,100.00
2023-02-17T04:49:23.070Z,100.00
2023-02-17T04:51:49.477Z,100.00
2023-02-17T04:53:28.113Z,100.00
2023-02-17T04:54:15.976Z,100.00
2023-02-17T04:56:42.348Z,100.00
2023-02-17T04:58:28.129Z,100.00
2023-02-17T04:59:08.860Z,100.00
2023-02-17T05:01:35.287Z,100.00
2023-02-17T05:03:28.152Z,100.00
2023-02-17T05:04:01.663Z,100.00
2023-02-17T05:06:28.163Z,100.00
2023-02-17T05:08:28.136Z,100.00
2023-02-17T05:08:54.546Z,100.00
2023-02-17T05:11:21.159Z,100.00
2023-02-17T05:13:28.108Z,100.00
2023-02-17T05:13:47.548Z,100.00
2023-02-17T05:16:14.286Z,100.00
2023-02-17T05:18:28.362Z,100.00
2023-02-17T05:18:40.878Z,100.00
2023-02-17T05:21:10.458Z,100.00
2023-02-17T05:23:29.183Z,100.00
2023-02-17T05:23:41.393Z,100.00
2023-02-17T05:26:11.399Z,100.00
2023-02-17T05:28:28.130Z,100.00
2023-02-17T05:28:37.792Z,100.00
2023-02-17T05:31:04.951Z,100.00
2023-02-17T05:33:28.132Z,100.00
2023-02-17T05:33:31.515Z,100.00
2023-02-17T05:36:05.921Z,100.00
2023-02-17T05:38:28.102Z,100.00
2023-02-17T05:38:33.059Z,100.00
2023-02-17T05:40:59.545Z,100.00
2023-02-17T05:43:26.127Z,100.00
2023-02-17T05:43:28.138Z,100.00
2023-02-17T05:45:52.908Z,100.00
2023-02-17T05:48:19.894Z,100.00
2023-02-17T05:48:28.131Z,100.00
2023-02-17T05:50:46.234Z,100.00
2023-02-17T05:53:13.025Z,100.00
2023-02-17T05:53:28.110Z,100.00
2023-02-17T05:55:39.826Z,100.00
2023-02-17T05:58:06.269Z,100.00
2023-02-17T05:58:31.417Z,100.00
2023-02-17T06:00:32.815Z,100.00
2023-02-17T06:02:59.269Z,100.00
2023-02-17T06:03:28.129Z,100.00
2023-02-17T06:05:28.447Z,100.00
2023-02-17T06:07:55.109Z,100.00
2023-02-17T06:08:28.146Z,100.00
2023-02-17T06:10:21.556Z,100.00
2023-02-17T06:12:48.147Z,100.00
2023-02-17T06:13:28.113Z,100.00
2023-02-17T06:15:14.533Z,100.00
2023-02-17T06:17:41.429Z,100.00
2023-02-17T06:18:28.124Z,100.00
2023-02-17T06:20:09.288Z,100.00
2023-02-17T06:22:35.718Z,100.00
2023-02-17T06:23:28.508Z,100.00
2023-02-17T06:25:02.271Z,100.00
2023-02-17T06:27:28.696Z,100.00
2023-02-17T06:28:28.460Z,100.00
2023-02-17T06:29:55.508Z,100.00
2023-02-17T06:32:22.007Z,100.00
2023-02-17T06:33:30.895Z,100.00
2023-02-17T06:34:48.736Z,100.00
2023-02-17T06:37:15.494Z,100.00
2023-02-17T06:38:28.271Z,100.00
2023-02-17T06:39:41.912Z,100.00
2023-02-17T06:42:11.703Z,100.00
2023-02-17T06:43:28.160Z,100.00
2023-02-17T06:44:38.126Z,100.00
2023-02-17T06:47:04.532Z,100.00
2023-02-17T06:48:28.179Z,100.00
2023-02-17T06:49:31.021Z,100.00
2023-02-17T06:51:57.515Z,100.00
2023-02-17T06:53:28.164Z,100.00
2023-02-17T06:54:23.909Z,100.00
2023-02-17T06:56:50.221Z,100.00
2023-02-17T06:58:28.130Z,100.00
2023-02-17T06:59:16.665Z,100.00
2023-02-17T07:01:43.052Z,100.00
2023-02-17T07:03:28.178Z,100.00
2023-02-17T07:04:09.592Z,100.00
2023-02-17T07:06:35.946Z,100.00
2023-02-17T07:08:28.150Z,100.00
2023-02-17T07:09:02.462Z,100.00
2023-02-17T07:11:31.392Z,100.00
2023-02-17T07:13:28.154Z,100.00
2023-02-17T07:13:57.965Z,100.00
2023-02-17T07:16:24.992Z,100.00
2023-02-17T07:18:28.196Z,100.00
2023-02-17T07:18:51.960Z,100.00
2023-02-17T07:21:18.560Z,100.00
2023-02-17T07:23:28.153Z,100.00
2023-02-17T07:23:45.148Z,100.00
2023-02-17T07:26:14.057Z,100.00
2023-02-17T07:28:28.181Z,100.00
2023-02-17T07:28:41.172Z,100.00
2023-02-17T07:31:13.457Z,100.00
2023-02-17T07:33:28.142Z,100.00
2023-02-17T07:33:40.830Z,100.00
2023-02-17T07:36:08.109Z,100.00
2023-02-17T07:38:28.168Z,100.00
2023-02-17T07:38:35.674Z,100.00
2023-02-17T07:41:11.306Z,100.00
2023-02-17T07:43:28.143Z,100.00
2023-02-17T07:43:37.710Z,100.00
2023-02-17T07:46:05.472Z,100.00
2023-02-17T07:48:28.163Z,100.00
2023-02-17T07:48:32.184Z,100.00
2023-02-17T07:51:11.070Z,100.00
2023-02-17T07:53:28.155Z,100.00
2023-02-17T07:53:38.074Z,100.00
2023-02-17T07:56:06.178Z,100.00
2023-02-17T07:58:28.153Z,100.00
2023-02-17T07:58:33.907Z,100.00
2023-02-17T08:01:26.810Z,100.00
2023-02-17T08:03:28.167Z,100.00
2023-02-17T08:03:53.731Z,100.00
2023-02-17T08:06:24.804Z,100.00
2023-02-17T08:08:28.168Z,100.00
2023-02-17T08:09:21.409Z,100.00
2023-02-17T08:12:06.310Z,100.00
2023-02-17T08:13:28.151Z,100.00
2023-02-17T08:14:33.465Z,100.00
2023-02-17T08:17:00.348Z,100.00
2023-02-17T08:18:30.596Z,100.00
2023-02-17T08:19:31.694Z,100.00
2023-02-17T08:22:06.025Z,100.00
2023-02-17T08:23:28.174Z,100.00
2023-02-17T08:24:32.331Z,100.00
2023-02-17T08:26:59.022Z,100.00
2023-02-17T08:28:28.160Z,100.00
2023-02-17T08:29:25.448Z,100.00
2023-02-17T08:31:53.556Z,100.00
2023-02-17T08:33:28.155Z,100.00
2023-02-17T08:34:20.250Z,100.00
2023-02-17T08:36:46.858Z,100.00
2023-02-17T08:38:28.160Z,100.00
2023-02-17T08:39:18.148Z,100.00
2023-02-17T08:41:45.494Z,100.00
2023-02-17T08:43:28.166Z,100.00
2023-02-17T08:44:17.294Z,100.00
2023-02-17T08:46:45.317Z,100.00
2023-02-17T08:48:28.304Z,100.00
2023-02-17T08:49:11.739Z,100.00
2023-02-17T08:51:39.022Z,100.00
2023-02-17T08:53:28.188Z,100.00
2023-02-17T08:54:06.948Z,100.00
2023-02-17T08:56:34.384Z,100.00
2023-02-17T08:58:28.194Z,100.00
2023-02-17T08:59:00.755Z,100.00
2023-02-17T09:01:27.229Z,100.00
2023-02-17T09:03:28.231Z,100.00
2023-02-17T09:03:56.316Z,100.00
2023-02-17T09:06:23.261Z,100.00
2023-02-17T09:08:28.246Z,100.00
2023-02-17T09:08:50.192Z,100.00
2023-02-17T09:11:19.060Z,100.00
2023-02-17T09:13:28.208Z,100.00
2023-02-17T09:13:45.770Z,100.00
2023-02-17T09:16:12.685Z,100.00
2023-02-17T09:18:28.233Z,100.00
2023-02-17T09:18:39.366Z,100.00
2023-02-17T09:21:12.049Z,100.00
2023-02-17T09:23:28.215Z,100.00
2023-02-17T09:23:38.767Z,100.00
2023-02-17T09:26:10.575Z,100.00
2023-02-17T09:28:28.147Z,100.00
2023-02-17T09:28:38.175Z,100.00
2023-02-17T09:31:19.662Z,100.00
2023-02-17T09:33:28.235Z,100.00
2023-02-17T09:33:48.199Z,100.00
2023-02-17T09:36:18.118Z,100.00
2023-02-17T09:38:28.203Z,100.00
2023-02-17T09:38:45.336Z,100.00
2023-02-17T09:41:24.078Z,100.00
2023-02-17T09:43:30.260Z,100.00
2023-02-17T09:43:52.909Z,100.00
2023-02-17T09:46:59.737Z,100.00
2023-02-17T09:48:28.158Z,100.00
2023-02-17T09:49:37.870Z,100.00
2023-02-17T09:52:14.358Z,100.00
2023-02-17T09:53:28.210Z,100.00
2023-02-17T09:55:05.335Z,100.00
2023-02-17T09:57:41.298Z,100.00
2023-02-17T09:58:28.262Z,100.00
2023-02-17T10:00:15.551Z,100.00
2023-02-17T10:03:03.576Z,100.00
2023-02-17T10:03:28.240Z,100.00
2023-02-17T10:05:36.440Z,100.00
2023-02-17T10:08:11.598Z,100.00
2023-02-17T10:08:28.180Z,100.00
2023-02-17T10:11:14.730Z,100.00
2023-02-17T10:13:28.188Z,100.00
2023-02-17T10:13:44.515Z,100.00
2023-02-17T10:16:20.289Z,100.00
2023-02-17T10:18:28.186Z,100.00
2023-02-17T10:18:54.127Z,100.00
2023-02-17T10:21:27.762Z,100.00
2023-02-17T10:23:28.226Z,100.00
2023-02-17T10:23:54.134Z,100.00
2023-02-17T10:26:26.289Z,100.00
2023-02-17T10:28:28.183Z,100.00
2023-02-17T10:29:03.052Z,99.43
2023-02-17T10:31:41.872Z,98.05
2023-02-17T10:33:28.213Z,98.05
2023-02-17T10:34:35.051Z,95.20
2023-02-17T10:37:04.174Z,94.41
2023-02-17T10:38:28.229Z,23
2023-02-17T10:39:50.817Z,93.50
2023-02-17T10:42:27.035Z,92.60
2023-02-17T10:43:28.201Z,92.60
2023-02-17T10:45:03.693Z,91.97
2023-02-17T10:47:30.483Z,92.43
2023-02-17T10:48:28.216Z,92.43
2023-02-17T10:49:57.939Z,92.86
2023-02-17T10:52:36.350Z,93.37
2023-02-17T10:53:28.203Z,93.37
2023-02-17T10:55:25.923Z,94.29
2023-02-17T10:57:58.837Z,96.37
2023-02-17T10:58:28.187Z,96.37
2023-02-17T11:00:26.646Z,97.03
2023-02-17T11:02:53.109Z,96.86
2023-02-17T11:03:28.301Z,96.86
2023-02-17T11:05:34.509Z,97.25
2023-02-17T11:08:30.315Z,97.24
2023-02-17T11:08:30.461Z,97.24
2023-02-17T11:11:06.650Z,97.97
2023-02-17T11:13:28.210Z,97.97
2023-02-17T11:13:40.488Z,98.31
2023-02-17T11:16:07.569Z,98.27
2023-02-17T11:18:28.235Z,98.27
2023-02-17T11:18:48.585Z,97.49
2023-02-17T11:21:15.086Z,98.82
2023-02-17T11:23:28.279Z,98.82
2023-02-17T11:24:02.292Z,98.94
2023-02-17T11:26:33.406Z,98.98
2023-02-17T11:28:28.269Z,98.98
2023-02-17T11:29:21.806Z,96.87
2023-02-17T11:32:06.949Z,95.38
2023-02-17T11:33:28.431Z,95.38
2023-02-17T11:34:38.410Z,95.10
2023-02-17T11:37:14.012Z,94.10
2023-02-17T11:38:28.241Z,94.10
2023-02-17T11:39:43.072Z,91.35
2023-02-17T11:42:16.902Z,90.39
2023-02-17T11:43:28.233Z,90.39
2023-02-17T11:44:43.506Z,89.47
2023-02-17T11:47:20.945Z,88.63
2023-02-17T11:48:28.268Z,88.63
2023-02-17T11:49:59.056Z,88.34
2023-02-17T11:52:48.359Z,88.18
2023-02-17T11:53:28.278Z,88.18
2023-02-17T11:55:26.877Z,86.88
2023-02-17T11:58:02.285Z,86.29
2023-02-17T11:58:28.223Z,86.29
2023-02-17T12:00:41.626Z,85.83
2023-02-17T12:03:43.210Z,85.97
2023-02-17T12:03:43.459Z,85.97
2023-02-17T12:06:28.582Z,86.26
2023-02-17T12:08:28.214Z,86.26
2023-02-17T12:09:04.938Z,87.17
2023-02-17T12:11:51.511Z,86.67
2023-02-17T12:13:28.269Z,86.67
2023-02-17T12:14:44.228Z,87.00
2023-02-17T12:17:17.580Z,87.58
2023-02-17T12:18:28.348Z,87.58
2023-02-17T12:19:57.836Z,89.38
2023-02-17T12:22:35.126Z,89.22
2023-02-17T12:23:28.242Z,89.22
2023-02-17T12:25:04.154Z,88.77
2023-02-17T12:27:57.779Z,88.34
2023-02-17T12:28:28.268Z,88.34
2023-02-17T12:30:40.490Z,88.82
2023-02-17T12:33:22.108Z,87.74
2023-02-17T12:33:28.264Z,23
2023-02-17T12:36:00.880Z,87.91
2023-02-17T12:38:31.779Z,87.99
2023-02-17T12:38:31.929Z,87.99
2023-02-17T12:41:10.266Z,85.51
2023-02-17T12:43:28.205Z,85.51
2023-02-17T12:43:49.453Z,83.55
2023-02-17T12:46:22.294Z,83.15
2023-02-17T12:48:28.272Z,83.15
2023-02-17T12:48:55.447Z,83.85
2023-02-17T12:51:31.001Z,84.05
2023-02-17T12:53:28.254Z,84.05
2023-02-17T12:54:21.867Z,83.33
2023-02-17T12:56:54.990Z,82.89
2023-02-17T12:58:28.248Z,82.89
2023-02-17T12:59:34.119Z,82.72
2023-02-17T13:02:06.425Z,81.80
2023-02-17T13:03:28.226Z,81.80
2023-02-17T13:04:35.136Z,82.26
2023-02-17T13:07:25.543Z,82.63
2023-02-17T13:08:28.262Z,82.63
2023-02-17T13:09:54.381Z,81.82
2023-02-17T13:12:23.763Z,83.24
2023-02-17T13:13:28.246Z,83.24
2023-02-17T13:14:53.229Z,84.82
2023-02-17T13:17:23.562Z,85.88
2023-02-17T13:18:28.219Z,85.88
2023-02-17T13:20:23.451Z,86.36
2023-02-17T13:22:49.949Z,87.59
2023-02-17T13:23:28.368Z,87.59
2023-02-17T13:25:32.397Z,87.14
2023-02-17T13:28:01.717Z,85.82
2023-02-17T13:28:28.259Z,85.82
2023-02-17T13:30:40.502Z,85.63
2023-02-17T13:33:15.432Z,85.61
2023-02-17T13:33:28.234Z,85.61
2023-02-17T13:35:41.818Z,86.06
2023-02-17T13:38:10.076Z,86.03
2023-02-17T13:38:28.226Z,86.03
2023-02-17T13:40:40.486Z,86.10
2023-02-17T13:43:15.556Z,87.06
2023-02-17T13:43:28.225Z,87.06
2023-02-17T13:45:49.209Z,87.27
2023-02-17T13:48:24.713Z,87.40
2023-02-17T13:48:28.260Z,87.40
2023-02-17T13:51:09.802Z,87.99
2023-02-17T13:53:28.288Z,87.99
2023-02-17T13:53:39.339Z,87.94
2023-02-17T13:56:11.384Z,87.93
2023-02-17T13:58:28.341Z,87.93
2023-02-17T13:58:41.392Z,88.38
2023-02-17T14:01:16.407Z,88.86
2023-02-17T14:03:28.245Z,88.86
2023-02-17T14:03:47.371Z,88.75
2023-02-17T14:06:26.102Z,88.46
2023-02-17T14:08:28.269Z,88.46
2023-02-17T14:08:52.580Z,88.47
2023-02-17T14:11:22.994Z,88.32
2023-02-17T14:13:28.269Z,88.32
2023-02-17T14:13:51.912Z,88.14
2023-02-17T14:16:32.519Z,88.18
2023-02-17T14:18:28.265Z,88.18
2023-02-17T14:19:01.772Z,88.93
2023-02-17T14:21:28.224Z,89.02
2023-02-17T14:23:28.433Z,89.02
2023-02-17T14:23:56.653Z,88.15
2023-02-17T14:26:35.419Z,88.66
2023-02-17T14:28:28.542Z,88.66
2023-02-17T14:29:07.357Z,87.90
2023-02-17T14:31:47.116Z,86.81
2023-02-17T14:33:28.363Z,86.81
2023-02-17T14:34:28.590Z,85.88
2023-02-17T14:37:06.755Z,85.46
2023-02-17T14:38:28.264Z,85.46
2023-02-17T14:39:33.159Z,83.22
2023-02-17T14:41:59.470Z,80.83
2023-02-17T14:43:28.268Z,80.83
2023-02-17T14:44:25.879Z,81.01
2023-02-17T14:46:52.302Z,81.01
2023-02-17T14:48:28.330Z,81.01
2023-02-17T14:49:18.761Z,81.69
2023-02-17T14:51:45.103Z,81.53
2023-02-17T14:53:28.298Z,81.53
2023-02-17T14:54:17.333Z,82.63
2023-02-17T14:56:58.383Z,82.75
2023-02-17T14:58:28.283Z,82.75
2023-02-17T14:59:24.826Z,82.64
2023-02-17T15:01:51.214Z,82.26
2023-02-17T15:03:28.322Z,82.26
2023-02-17T15:04:17.634Z,82.64
2023-02-17T15:06:50.759Z,82.84
2023-02-17T15:08:28.285Z,82.84
2023-02-17T15:09:21.292Z,83.98
2023-02-17T15:11:49.179Z,84.15
2023-02-17T15:13:28.276Z,84.15
2023-02-17T15:14:19.049Z,84.70
2023-02-17T15:16:48.115Z,85.60
2023-02-17T15:18:28.417Z,85.60
2023-02-17T15:19:19.199Z,86.06
2023-02-17T15:21:48.978Z,87.15
2023-02-17T15:23:28.387Z,87.15
2023-02-17T15:24:18.741Z,87.51
2023-02-17T15:26:45.211Z,87.79
2023-02-17T15:28:29.414Z,87.79
2023-02-17T15:29:17.701Z,88.24
2023-02-17T15:31:45.688Z,87.94
2023-02-17T15:33:28.247Z,87.94
2023-02-17T15:34:15.781Z,88.41
2023-02-17T15:36:42.496Z,88.50
2023-02-17T15:38:28.412Z,88.50
2023-02-17T15:39:17.417Z,89.78
2023-02-17T15:41:45.822Z,91.14
2023-02-17T15:43:28.420Z,91.14
2023-02-17T15:44:29.541Z,91.10
2023-02-17T15:46:56.201Z,91.67
2023-02-17T15:48:28.336Z,91.67
2023-02-17T15:49:22.988Z,92.12
2023-02-17T15:51:49.566Z,93.59
2023-02-17T15:53:28.345Z,93.59
2023-02-17T15:54:19.114Z,95.39
2023-02-17T15:56:50.408Z,96.35
2023-02-17T15:58:28.321Z,96.35
2023-02-17T15:59:23.354Z,98.51
2023-02-17T16:01:50.775Z,100.00
2023-02-17T16:03:28.315Z,100.00
2023-02-17T16:04:17.342Z,100.00
2023-02-17T16:06:43.899Z,100.00
2023-02-17T16:08:28.264Z,100.00
2023-02-17T16:09:10.756Z,100.00
2023-02-17T16:11:48.360Z,100.00
2023-02-17T16:13:28.308Z,100.00
2023-02-17T16:14:24.895Z,100.00
2023-02-17T16:16:51.531Z,100.00
2023-02-17T16:18:28.315Z,100.00
2023-02-17T16:19:18.001Z,100.00
2023-02-17T16:21:44.318Z,100.00
2023-02-17T16:23:28.341Z,100.00
2023-02-17T16:24:10.714Z,100.00
2023-02-17T16:26:39.362Z,100.00
2023-02-17T16:28:28.404Z,100.00
2023-02-17T16:29:16.157Z,100.00
2023-02-17T16:31:42.730Z,100.00
2023-02-17T16:33:28.350Z,100.00
2023-02-17T16:34:14.401Z,100.00
2023-02-17T16:36:40.788Z,100.00
2023-02-17T16:38:28.297Z,100.00
2023-02-17T16:39:16.206Z,100.00
2023-02-17T16:41:42.808Z,100.00
2023-02-17T16:43:28.299Z,100.00
2023-02-17T16:44:22.012Z,100.00
2023-02-17T16:46:54.571Z,100.00
2023-02-17T16:48:28.363Z,100.00
2023-02-17T16:49:25.912Z,100.00
2023-02-17T16:51:52.608Z,100.00
2023-02-17T16:53:28.326Z,100.00
2023-02-17T16:54:19.010Z,100.00
2023-02-17T16:56:52.142Z,100.00
2023-02-17T16:58:28.274Z,100.00
2023-02-17T16:59:21.192Z,100.00
2023-02-17T17:01:48.331Z,100.00
2023-02-17T17:03:28.319Z,100.00
2023-02-17T17:04:15.883Z,100.00
2023-02-17T17:06:45.384Z,100.00
2023-02-17T17:08:28.313Z,100.00
2023-02-17T17:09:17.187Z,100.00
2023-02-17T17:11:44.474Z,100.00
2023-02-17T17:13:28.315Z,100.00
2023-02-17T17:14:11.433Z,100.00
2023-02-17T17:16:40.237Z,100.00
2023-02-17T17:18:28.315Z,100.00
2023-02-17T17:19:07.144Z,100.00
2023-02-17T17:21:33.806Z,100.00
2023-02-17T17:23:28.566Z,100.00
2023-02-17T17:24:00.306Z,100.00
2023-02-17T17:26:34.882Z,100.00
2023-02-17T17:28:28.415Z,100.00
2023-02-17T17:29:02.299Z,100.00
2023-02-17T17:31:29.363Z,100.00
2023-02-17T17:33:28.314Z,100.00
2023-02-17T17:33:55.939Z,100.00
2023-02-17T17:36:29.909Z,100.00
2023-02-17T17:38:28.313Z,100.00
2023-02-17T17:38:57.953Z,100.00
2023-02-17T17:41:26.274Z,100.00
2023-02-17T17:43:28.292Z,100.00
2023-02-17T17:43:53.277Z,100.00
2023-02-17T17:46:26.035Z,100.00
2023-02-17T17:48:28.332Z,100.00
2023-02-17T17:48:52.518Z,100.00
2023-02-17T17:51:21.712Z,100.00
2023-02-17T17:53:28.331Z,100.00
2023-02-17T17:53:48.825Z,100.00
2023-02-17T17:56:19.950Z,100.00
2023-02-17T17:58:28.323Z,100.00
2023-02-17T17:58:46.400Z,100.00
2023-02-17T18:01:13.450Z,100.00
2023-02-17T18:03:28.298Z,100.00
2023-02-17T18:03:41.053Z,100.00
2023-02-17T18:06:13.100Z,100.00
2023-02-17T18:08:28.316Z,100.00
2023-02-17T18:08:40.153Z,100.00
2023-02-17T18:11:07.872Z,100.00
2023-02-17T18:13:28.332Z,100.00
2023-02-17T18:13:34.909Z,100.00
2023-02-17T18:16:02.788Z,100.00
2023-02-17T18:18:29.391Z,100.00
2023-02-17T18:18:29.543Z,100.00
2023-02-17T18:20:55.904Z,100.00
2023-02-17T18:23:23.983Z,100.00
2023-02-17T18:23:28.409Z,100.00
2023-02-17T18:25:50.292Z,100.00
2023-02-17T18:28:16.682Z,100.00
2023-02-17T18:28:28.389Z,100.00
2023-02-17T18:30:43.321Z,100.00
2023-02-17T18:33:09.879Z,100.00
2023-02-17T18:33:28.324Z,100.00
2023-02-17T18:35:38.516Z,100.00
2023-02-17T18:38:04.973Z,100.00
2023-02-17T18:38:28.326Z,100.00
2023-02-17T18:40:31.665Z,100.00
2023-02-17T18:42:59.335Z,100.00
2023-02-17T18:43:28.333Z,100.00
2023-02-17T18:45:26.325Z,100.00
2023-02-17T18:47:52.688Z,100.00
2023-02-17T18:48:28.562Z,100.00
2023-02-17T18:50:19.132Z,100.00
2023-02-17T18:52:45.548Z,100.00
2023-02-17T18:53:28.341Z,100.00
2023-02-17T18:55:12.467Z,100.00
2023-02-17T18:57:39.280Z,100.00
2023-02-17T18:58:28.347Z,100.00
2023-02-17T19:00:10.751Z,100.00
2023-02-17T19:02:38.161Z,100.00
2023-02-17T19:03:28.369Z,100.00
2023-02-17T19:05:06.134Z,100.00
2023-02-17T19:07:33.720Z,100.00
2023-02-17T19:08:28.361Z,100.00
2023-02-17T19:10:01.046Z,100.00
2023-02-17T19:12:29.587Z,100.00
2023-02-17T19:13:28.303Z,100.00
2023-02-17T19:14:56.296Z,100.00
2023-02-17T19:17:23.915Z,100.00
2023-02-17T19:18:28.305Z,100.00
2023-02-17T19:19:51.107Z,100.00
2023-02-17T19:22:17.953Z,100.00
2023-02-17T19:23:28.441Z,100.00
2023-02-17T19:24:49.521Z,100.00
2023-02-17T19:27:15.899Z,100.00
2023-02-17T19:28:28.325Z,100.00
2023-02-17T19:29:42.352Z,100.00
2023-02-17T19:32:08.797Z,100.00
2023-02-17T19:33:28.327Z,100.00
2023-02-17T19:34:38.363Z,100.00
2023-02-17T19:37:05.209Z,100.00
2023-02-17T19:38:28.338Z,100.00
2023-02-17T19:39:31.620Z,100.00
2023-02-17T19:41:58.007Z,100.00
2023-02-17T19:43:28.363Z,100.00
2023-02-17T19:44:24.433Z,100.00
2023-02-17T19:46:51.053Z,100.00
2023-02-17T19:48:28.425Z,100.00
2023-02-17T19:49:17.542Z,100.00
2023-02-17T19:51:43.986Z,100.00
2023-02-17T19:53:28.345Z,100.00
2023-02-17T19:54:10.386Z,100.00
2023-02-17T19:56:38.879Z,100.00
2023-02-17T19:58:28.349Z,100.00
2023-02-17T19:59:05.281Z,100.00
2023-02-17T20:01:33.384Z,100.00
2023-02-17T20:03:28.336Z,100.00
2023-02-17T20:04:04.276Z,100.00
2023-02-17T20:06:35.034Z,100.00
2023-02-17T20:08:28.346Z,100.00
2023-02-17T20:09:05.533Z,100.00
2023-02-17T20:11:32.885Z,100.00
2023-02-17T20:13:30.384Z,100.00
2023-02-17T20:14:00.944Z,100.00
2023-02-17T20:16:28.124Z,100.00
2023-02-17T20:18:28.336Z,100.00
2023-02-17T20:18:57.408Z,100.00
2023-02-17T20:21:26.602Z,100.00
2023-02-17T20:23:28.600Z,100.00
2023-02-17T20:23:53.091Z,100.00
2023-02-17T20:26:26.271Z,100.00
2023-02-17T20:28:28.454Z,100.00
2023-02-17T20:28:53.737Z,100.00
2023-02-17T20:31:20.599Z,100.00
2023-02-17T20:33:28.381Z,100.00
2023-02-17T20:33:47.448Z,100.00
2023-02-17T20:36:14.078Z,100.00
2023-02-17T20:38:28.398Z,100.00
2023-02-17T20:38:40.957Z,100.00
2023-02-17T20:41:08.906Z,100.00
2023-02-17T20:43:28.408Z,100.00
2023-02-17T20:43:37.509Z,100.00
2023-02-17T20:46:04.054Z,100.00
2023-02-17T20:48:28.562Z,100.00
2023-02-17T20:48:30.909Z,100.00
2023-02-17T20:50:58.853Z,100.00
2023-02-17T20:53:26.383Z,100.00
2023-02-17T20:53:28.450Z,100.00
2023-02-17T20:55:52.921Z,100.00
2023-02-17T20:58:19.474Z,100.00
2023-02-17T20:58:28.429Z,100.00
2023-02-17T21:00:46.164Z,100.00
2023-02-17T21:03:12.822Z,100.00
2023-02-17T21:03:28.447Z,100.00